createdAt,value
2023-02-11T00:02:12.327Z,130.60
2023-02-11T00:04:38.909Z,128.48
2023-02-11T00:07:05.566Z,128.63
2023-02-11T00:09:32.179Z,133.88
2023-02-11T00:11:58.725Z,130.02
2023-02-11T00:14:25.327Z,132.23
2023-02-11T00:16:51.960Z,120.75
2023-02-11T00:19:18.621Z,130.85
2023-02-11T00:21:45.183Z,127.20
2023-02-11T00:24:11.713Z,119.80
2023-02-11T00:26:38.320Z,127.07
2023-02-11T00:29:05.628Z,116.80
2023-02-11T00:31:34.481Z,122.03
2023-02-11T00:34:01.188Z,123.97
2023-02-11T00:36:29.136Z,132.48
2023-02-11T00:38:57.530Z,123.45
2023-02-11T00:41:24.926Z,121.68
2023-02-11T00:43:52.442Z,134.35
2023-02-11T00:46:19.075Z,121.22
2023-02-11T00:48:45.825Z,129.27
2023-02-11T00:51:12.475Z,130.18
2023-02-11T00:53:39.611Z,136.05
2023-02-11T00:56:07.692Z,147.88
2023-02-11T00:58:34.828Z,129.07
2023-02-11T01:01:01.461Z,120.03
2023-02-11T01:03:28.220Z,115.93
2023-02-11T01:05:55.543Z,128.73
2023-02-11T01:08:22.296Z,119.88
2023-02-11T01:10:56.567Z,134.07
2023-02-11T01:13:23.917Z,133.43
2023-02-11T01:15:50.905Z,124.75
2023-02-11T01:18:17.687Z,127.90
2023-02-11T01:20:44.851Z,121.60
2023-02-11T01:23:11.482Z,126.18
2023-02-11T01:25:38.033Z,125.05
2023-02-11T01:28:05.161Z,117.80
2023-02-11T01:30:31.838Z,134.68
2023-02-11T01:32:58.389Z,131.80
2023-02-11T01:35:24.961Z,134.45
2023-02-11T01:37:51.520Z,112.90
2023-02-11T01:40:18.270Z,124.93
2023-02-11T01:42:44.893Z,119.53
2023-02-11T01:45:48.922Z,126.18
2023-02-11T01:48:20.859Z,135.30
2023-02-11T01:50:52.166Z,119.72
2023-02-11T01:53:37.981Z,132.73
2023-02-11T01:56:24.807Z,119.05
2023-02-11T01:58:53.328Z,114.18
2023-02-11T02:01:25.266Z,122.38
2023-02-11T02:03:57.198Z,125.60
2023-02-11T02:06:33.490Z,121.70
2023-02-11T02:09:32.050Z,126.13
2023-02-11T02:11:58.634Z,112.57
2023-02-11T02:14:26.611Z,114.88
2023-02-11T02:16:53.334Z,122.22
2023-02-11T02:19:38.357Z,124.60
2023-02-11T02:22:54.002Z,124.63
2023-02-11T02:26:03.915Z,115.82
2023-02-11T02:29:18.378Z,118.75
2023-02-11T02:32:03.432Z,122.05
2023-02-11T02:34:51.119Z,116.85
2023-02-11T02:37:20.651Z,110.68
2023-02-11T02:39:50.353Z,117.72
2023-02-11T02:42:19.667Z,134.55
2023-02-11T02:44:53.297Z,131.48
2023-02-11T02:47:19.863Z,129.35
2023-02-11T02:49:46.373Z,117.22
2023-02-11T02:52:18.336Z,124.20
2023-02-11T02:55:02.422Z,120.90
2023-02-11T02:57:38.255Z,117.50
2023-02-11T03:00:26.664Z,134.82
2023-02-11T03:03:10.137Z,115.32
2023-02-11T03:06:02.819Z,115.07
2023-02-11T03:08:44.106Z,121.72
2023-02-11T03:11:12.584Z,123.43
2023-02-11T03:13:41.125Z,126.57
2023-02-11T03:16:39.201Z,126.90
2023-02-11T03:19:12.813Z,124.68
2023-02-11T03:21:42.053Z,127.60
2023-02-11T03:24:14.971Z,129.75
2023-02-11T03:26:48.808Z,120.18
2023-02-11T03:29:37.562Z,119.97
2023-02-11T03:32:17.909Z,119.95
2023-02-11T03:34:57.795Z,130.02
2023-02-11T03:37:45.350Z,120.82
2023-02-11T03:40:22.751Z,120.57
2023-02-11T03:43:08.825Z,113.50
2023-02-11T03:45:37.870Z,123.93
2023-02-11T03:48:11.515Z,126.40
2023-02-11T03:50:40.793Z,126.47
2023-02-11T03:53:08.176Z,129.55
2023-02-11T03:55:38.705Z,122.38
2023-02-11T03:58:05.550Z,133.68
2023-02-11T04:00:34.805Z,120.43
2023-02-11T04:03:01.506Z,124.88
2023-02-11T04:05:28.270Z,134.15
2023-02-11T04:07:54.846Z,133.93
2023-02-11T04:10:22.128Z,130.00
2023-02-11T04:12:48.847Z,123.82
2023-02-11T04:15:15.564Z,118.35
2023-02-11T04:17:42.350Z,140.38
2023-02-11T04:20:09.544Z,125.15
2023-02-11T04:22:36.720Z,125.72
2023-02-11T04:25:04.612Z,123.28
2023-02-11T04:27:31.756Z,140.70
2023-02-11T04:29:58.358Z,124.72
2023-02-11T04:32:24.900Z,122.53
2023-02-11T04:34:52.024Z,125.97
2023-02-11T04:37:18.557Z,123.20
2023-02-11T04:39:45.097Z,116.78
2023-02-11T04:42:12.215Z,121.43
2023-02-11T04:44:38.785Z,115.78
2023-02-11T04:47:05.462Z,124.20
2023-02-11T04:49:31.967Z,131.43
2023-02-11T04:51:58.533Z,124.18
2023-02-11T04:54:25.117Z,130.63
2023-02-11T04:56:51.697Z,117.43
2023-02-11T04:59:18.203Z,115.28
2023-02-11T05:01:44.763Z,138.73
2023-02-11T05:04:13.253Z,138.38
2023-02-11T05:06:40.502Z,128.45
2023-02-11T05:09:07.160Z,126.32
2023-02-11T05:11:33.786Z,129.57
2023-02-11T05:14:00.431Z,135.88
2023-02-11T05:16:27.382Z,114.45
2023-02-11T05:18:55.733Z,127.38
2023-02-11T05:21:22.746Z,122.65
2023-02-11T05:23:49.355Z,128.25
2023-02-11T05:26:16.206Z,128.68
2023-02-11T05:28:43.614Z,123.63
2023-02-11T05:31:11.575Z,119.88
2023-02-11T05:33:38.448Z,129.05
2023-02-11T05:36:08.415Z,135.73
2023-02-11T05:38:36.302Z,112.85
2023-02-11T05:41:03.562Z,126.85
2023-02-11T05:43:30.471Z,122.88
2023-02-11T05:45:57.280Z,123.55
2023-02-11T05:48:23.920Z,114.38
2023-02-11T05:50:50.475Z,119.43
2023-02-11T05:53:17.282Z,133.00
2023-02-11T05:55:44.043Z,123.15
2023-02-11T05:58:10.742Z,128.23
2023-02-11T06:00:38.178Z,121.85
2023-02-11T06:03:05.450Z,130.55
2023-02-11T06:05:32.149Z,123.85
2023-02-11T06:07:58.803Z,123.32
2023-02-11T06:10:25.658Z,126.97
2023-02-11T06:12:52.198Z,119.90
2023-02-11T06:15:18.750Z,126.47
2023-02-11T06:17:45.325Z,119.32
2023-02-11T06:20:12.137Z,131.38
2023-02-11T06:22:38.699Z,113.95
2023-02-11T06:25:05.781Z,126.57
2023-02-11T06:27:32.483Z,124.78
2023-02-11T06:29:59.026Z,128.57
2023-02-11T06:32:45.500Z,126.25
2023-02-11T06:35:14.330Z,120.90
2023-02-11T06:37:41.971Z,123.40
2023-02-11T06:40:09.185Z,114.43
2023-02-11T06:42:36.273Z,115.95
2023-02-11T06:45:05.999Z,133.40
2023-02-11T06:47:32.667Z,117.88
2023-02-11T06:49:59.210Z,129.57
2023-02-11T06:52:25.763Z,125.78
2023-02-11T06:54:52.365Z,115.20
2023-02-11T06:57:19.001Z,115.57
2023-02-11T06:59:45.519Z,110.20
2023-02-11T07:02:12.312Z,122.32
2023-02-11T07:04:38.931Z,115.57
2023-02-11T07:07:05.545Z,112.88
2023-02-11T07:09:32.166Z,128.18
2023-02-11T07:11:58.760Z,124.65
2023-02-11T07:14:25.632Z,117.78
2023-02-11T07:16:52.165Z,120.97
2023-02-11T07:19:18.769Z,119.95
2023-02-11T07:21:45.360Z,119.28
2023-02-11T07:24:13.113Z,126.22
2023-02-11T07:26:40.123Z,117.22
2023-02-11T07:29:06.733Z,114.63
2023-02-11T07:31:33.523Z,133.75
2023-02-11T07:34:01.949Z,122.03
2023-02-11T07:36:30.011Z,112.30
2023-02-11T07:38:56.601Z,121.63
2023-02-11T07:41:24.286Z,121.20
2023-02-11T07:43:50.986Z,118.63
2023-02-11T07:46:20.845Z,137.77
2023-02-11T07:48:47.480Z,116.00
2023-02-11T07:51:19.842Z,114.45
2023-02-11T07:53:46.968Z,110.93
2023-02-11T07:56:15.102Z,117.05
2023-02-11T07:58:43.196Z,113.07
2023-02-11T08:01:16.539Z,120.75
2023-02-11T08:03:43.273Z,113.00
2023-02-11T08:06:15.647Z,112.43
2023-02-11T08:08:42.804Z,109.65
2023-02-11T08:11:12.620Z,108.65
2023-02-11T08:13:39.214Z,113.38
2023-02-11T08:16:07.025Z,116.35
2023-02-11T08:18:34.631Z,120.30
2023-02-11T08:21:09.573Z,127.10
2023-02-11T08:23:38.124Z,114.10
2023-02-11T08:26:06.433Z,113.80
2023-02-11T08:28:36.565Z,105.47
2023-02-11T08:31:11.999Z,106.15
2023-02-11T08:33:40.640Z,110.38
2023-02-11T08:36:12.591Z,106.30
2023-02-11T08:38:39.410Z,90.22
2023-02-11T08:41:06.611Z,109.95
2023-02-11T08:43:33.448Z,105.07
2023-02-11T08:46:02.200Z,107.45
2023-02-11T08:48:29.357Z,104.75
2023-02-11T08:50:56.683Z,109.88
2023-02-11T08:53:23.540Z,99.65
2023-02-11T08:55:52.217Z,104.45
2023-02-11T08:58:19.389Z,104.43
2023-02-11T09:00:46.830Z,105.55
2023-02-11T09:03:14.901Z,101.88
2023-02-11T09:05:46.881Z,95.53
2023-02-11T09:08:14.013Z,110.60
2023-02-11T09:10:40.718Z,99.25
2023-02-11T09:13:07.981Z,103.40
2023-02-11T09:15:35.354Z,105.32
2023-02-11T09:18:02.211Z,95.88
2023-02-11T09:20:28.888Z,101.45
2023-02-11T09:22:58.738Z,104.32
2023-02-11T09:25:25.760Z,99.47
2023-02-11T09:27:53.769Z,93.55
2023-02-11T09:30:21.115Z,86.28
2023-02-11T09:32:47.899Z,91.63
2023-02-11T09:35:14.532Z,94.15
2023-02-11T09:37:41.039Z,81.60
2023-02-11T09:40:08.046Z,76.28
2023-02-11T09:42:40.116Z,78.88
2023-02-11T09:45:16.632Z,84.90
2023-02-11T09:47:50.902Z,78.53
2023-02-11T09:50:29.661Z,76.00
2023-02-11T09:53:26.614Z,72.13
2023-02-11T09:55:56.492Z,87.97
2023-02-11T09:58:27.542Z,75.60
2023-02-11T10:01:14.566Z,83.78
2023-02-11T10:03:57.671Z,72.68
2023-02-11T10:06:54.205Z,68.32
2023-02-11T10:09:29.752Z,68.75
2023-02-11T10:12:13.701Z,69.68
2023-02-11T10:15:06.619Z,62.88
2023-02-11T10:17:58.440Z,63.17
2023-02-11T10:20:36.577Z,59.22
2023-02-11T10:23:15.422Z,54.15
2023-02-11T10:25:49.200Z,66.95
2023-02-11T10:28:18.849Z,56.80
2023-02-11T10:31:00.249Z,54.33
2023-02-11T10:33:33.097Z,53.80
2023-02-11T10:36:00.388Z,52.72
2023-02-11T10:38:27.824Z,55.95
2023-02-11T10:40:54.353Z,53.83
2023-02-11T10:43:26.213Z,40.45
2023-02-11T10:45:55.106Z,47.25
2023-02-11T10:48:42.249Z,40.42
2023-02-11T10:51:20.720Z,38.10
2023-02-11T10:54:13.871Z,47.55
2023-02-11T10:56:54.773Z,39.55
2023-02-11T10:59:31.430Z,40.17
2023-02-11T11:02:01.371Z,33.17
2023-02-11T11:04:31.080Z,32.53
2023-02-11T11:07:18.141Z,34.42
2023-02-11T11:09:48.073Z,39.00
2023-02-11T11:12:46.510Z,30.67
2023-02-11T11:15:24.890Z,33.00
2023-02-11T11:33:27.179Z,31.45
2023-02-11T11:36:02.953Z,32.80
2023-02-11T11:38:31.453Z,31.95
2023-02-11T11:41:34.368Z,31.05
2023-02-11T11:44:02.666Z,27.50
2023-02-11T11:46:36.505Z,29.20
2023-02-11T11:49:29.119Z,34.60
2023-02-11T11:52:37.535Z,43.03
2023-02-11T11:55:21.870Z,27.60
2023-02-11T11:57:49.235Z,34.97
2023-02-11T12:00:31.132Z,28.63
2023-02-11T12:03:19.734Z,31.25
2023-02-11T12:05:52.057Z,27.75
2023-02-11T12:08:39.456Z,32.20
2023-02-11T12:11:17.404Z,32.35
2023-02-11T12:13:58.447Z,30.98
2023-02-11T12:16:43.571Z,26.92
2023-02-11T12:19:32.066Z,38.05
2023-02-11T12:22:18.655Z,37.88
2023-02-11T12:25:09.620Z,36.70
2023-02-11T12:27:50.676Z,38.38
2023-02-11T12:30:39.992Z,30.95
2023-02-11T12:33:22.981Z,35.90
2023-02-11T12:36:15.116Z,33.08
2023-02-11T12:39:29.230Z,33.90
2023-02-11T12:42:17.376Z,38.63
2023-02-11T12:45:03.967Z,31.88
2023-02-11T12:47:53.930Z,36.30
2023-02-11T12:50:33.195Z,42.45
2023-02-11T12:53:05.445Z,44.20
2023-02-11T12:55:37.306Z,41.05
2023-02-11T12:58:06.301Z,42.88
2023-02-11T13:00:46.889Z,40.20
2023-02-11T13:03:24.332Z,41.65
2023-02-11T13:05:54.177Z,37.15
2023-02-11T13:08:37.292Z,38.58
2023-02-11T13:11:14.381Z,38.83
2023-02-11T13:13:55.985Z,37.70
2023-02-11T13:16:42.816Z,35.90
2023-02-11T13:19:27.981Z,32.20
2023-02-11T13:22:13.443Z,30.95
2023-02-11T13:25:03.673Z,38.83
2023-02-11T13:27:58.368Z,37.45
2023-02-11T13:30:31.286Z,38.42
2023-02-11T13:32:57.741Z,30.42
2023-02-11T13:37:57.766Z,38.33
2023-02-11T13:40:34.277Z,34.78
2023-02-11T13:43:04.049Z,35.85
2023-02-11T13:45:33.868Z,33.95
2023-02-11T13:48:05.014Z,40.90
2023-02-11T13:50:37.941Z,37.60
2023-02-11T13:53:08.035Z,37.05
2023-02-11T13:55:35.410Z,41.33
2023-02-11T13:58:07.721Z,35.80
2023-02-11T14:00:34.185Z,37.33
2023-02-11T14:06:28.757Z,35.97
2023-02-11T14:09:21.257Z,41.20
2023-02-11T14:11:55.300Z,43.63
2023-02-11T14:14:24.012Z,36.88
2023-02-11T14:16:59.928Z,40.75
2023-02-11T14:19:38.384Z,44.35
2023-02-11T14:22:08.038Z,47.70
2023-02-11T14:24:34.905Z,37.65
2023-02-11T14:27:10.876Z,34.38
2023-02-11T14:29:56.273Z,41.75
2023-02-11T14:32:31.653Z,37.58
2023-02-11T14:35:20.888Z,30.77
2023-02-11T14:38:02.573Z,34.20
2023-02-11T14:40:55.086Z,31.58
2023-02-11T14:43:29.631Z,29.80
2023-02-11T14:45:58.299Z,41.88
2023-02-11T14:48:31.768Z,35.55
2023-02-11T14:51:03.025Z,49.13
2023-02-11T14:53:33.363Z,32.47
2023-02-11T14:56:00.281Z,35.15
2023-02-11T14:58:32.047Z,35.20
2023-02-11T15:01:03.123Z,35.78
2023-02-11T15:03:35.797Z,41.28
2023-02-11T15:06:05.456Z,34.60
2023-02-11T15:08:34.954Z,35.30
2023-02-11T15:11:04.604Z,33.40
2023-02-11T15:13:32.914Z,34.97
2023-02-11T15:16:07.188Z,35.45
2023-02-11T15:18:39.046Z,37.40
2023-02-11T15:21:06.426Z,41.53
2023-02-11T15:23:32.970Z,37.45
2023-02-11T15:26:04.245Z,33.47
2023-02-11T15:28:33.512Z,33.83
2023-02-11T15:31:01.925Z,34.70
2023-02-11T15:33:32.291Z,39.38
2023-02-11T15:36:03.138Z,35.08
2023-02-11T15:38:30.525Z,38.40
2023-02-11T15:41:00.982Z,33.22
2023-02-11T15:43:45.541Z,31.77
2023-02-11T15:46:16.718Z,31.23
2023-02-11T15:48:47.251Z,33.67
2023-02-11T15:51:21.886Z,29.60
2023-02-11T15:53:56.700Z,31.85
2023-02-11T15:56:42.147Z,37.38
2023-02-11T15:59:30.648Z,31.58
2023-02-11T16:02:05.472Z,38.63
2023-02-11T16:04:32.262Z,36.35
2023-02-11T16:06:58.884Z,36.35
2023-02-11T16:09:35.245Z,43.35
2023-02-11T16:12:21.074Z,36.08
2023-02-11T16:14:47.575Z,40.03
2023-02-11T16:19:47.184Z,39.53
2023-02-11T16:22:20.254Z,37.35
2023-02-11T16:24:49.472Z,41.80
2023-02-11T16:27:34.870Z,40.10
2023-02-11T16:30:01.978Z,48.08
2023-02-11T16:32:30.942Z,52.30
2023-02-11T16:35:00.865Z,42.72
2023-02-11T16:37:28.194Z,45.60
2023-02-11T16:39:56.543Z,48.85
2023-02-11T16:42:23.556Z,140.50
2023-02-11T16:44:50.207Z,57.28
2023-02-11T16:47:24.356Z,54.47
2023-02-11T16:49:51.239Z,48.67
2023-02-11T16:52:19.229Z,40.75
2023-02-11T16:54:45.885Z,56.03
2023-02-11T16:57:15.895Z,37.85
2023-02-11T16:59:42.984Z,43.38
2023-02-11T17:02:16.868Z,47.38
2023-02-11T17:04:44.192Z,45.55
2023-02-11T17:07:10.784Z,38.83
2023-02-11T17:09:37.322Z,46.88
2023-02-11T17:12:04.012Z,44.70
2023-02-11T17:14:30.637Z,38.28
2023-02-11T17:16:57.446Z,48.55
2023-02-11T17:19:24.217Z,42.00
2023-02-11T17:21:52.768Z,42.75
2023-02-11T17:24:21.513Z,42.38
2023-02-11T17:26:49.023Z,44.47
2023-02-11T17:29:18.336Z,41.33
2023-02-11T17:31:45.015Z,48.80
2023-02-11T17:34:11.843Z,42.13
2023-02-11T17:36:39.232Z,43.13
2023-02-11T17:39:08.119Z,39.92
2023-02-11T17:41:36.954Z,40.63
2023-02-11T17:44:03.646Z,39.58
2023-02-11T17:46:30.315Z,44.58
2023-02-11T17:48:58.644Z,42.10
2023-02-11T17:51:28.079Z,37.45
2023-02-11T17:53:57.972Z,40.53
2023-02-11T17:56:24.747Z,44.30
2023-02-11T17:58:52.547Z,38.50
2023-02-11T18:01:20.310Z,41.90
2023-02-11T18:03:47.055Z,40.08
2023-02-11T18:06:13.730Z,39.10
2023-02-11T18:08:41.835Z,41.10
2023-02-11T18:11:12.578Z,37.17
2023-02-11T18:13:39.150Z,37.63
2023-02-11T18:16:06.306Z,41.30
2023-02-11T18:18:33.081Z,39.70
2023-02-11T18:21:01.459Z,40.83
2023-02-11T18:23:28.050Z,39.17
2023-02-11T18:25:54.610Z,38.35
2023-02-11T18:28:21.406Z,41.85
2023-02-11T18:30:48.130Z,55.17
2023-02-11T18:33:14.754Z,40.97
2023-02-11T18:35:42.286Z,42.97
2023-02-11T18:38:09.750Z,38.63
2023-02-11T18:40:40.306Z,42.63
2023-02-11T18:43:07.507Z,47.10
2023-02-11T18:45:34.255Z,40.08
2023-02-11T18:48:03.607Z,43.97
2023-02-11T18:50:30.147Z,42.75
2023-02-11T18:52:56.676Z,46.33
2023-02-11T18:55:25.768Z,43.97
2023-02-11T18:57:53.001Z,51.10
2023-02-11T19:00:23.307Z,46.22
2023-02-11T19:02:49.874Z,53.42
2023-02-11T19:05:16.530Z,54.97
2023-02-11T19:07:43.074Z,50.10
2023-02-11T19:10:10.253Z,40.97
2023-02-11T19:12:39.307Z,45.30
2023-02-11T19:15:07.842Z,48.80
2023-02-11T19:17:34.513Z,51.35
2023-02-11T19:20:01.029Z,44.63
2023-02-11T19:22:28.139Z,49.65
2023-02-11T19:24:54.796Z,45.92
2023-02-11T19:27:21.452Z,43.63
2023-02-11T19:29:48.134Z,48.58
2023-02-11T19:32:15.817Z,44.65
2023-02-11T19:34:42.622Z,45.13
2023-02-11T19:37:12.589Z,47.92
2023-02-11T19:39:40.086Z,43.50
2023-02-11T19:42:06.742Z,41.63
2023-02-11T19:44:33.366Z,46.33
2023-02-11T19:47:00.106Z,44.10
2023-02-11T19:49:28.330Z,45.33
2023-02-11T19:51:58.209Z,40.58
2023-02-11T19:54:31.934Z,49.55
2023-02-11T19:56:58.880Z,36.20
2023-02-11T19:59:25.519Z,45.63
2023-02-11T20:01:53.587Z,50.60
2023-02-11T20:04:20.195Z,50.75
2023-02-11T20:06:50.385Z,54.22
2023-02-11T20:09:16.970Z,47.78
2023-02-11T20:11:43.857Z,48.67
2023-02-11T20:14:14.731Z,46.03
2023-02-11T20:16:48.769Z,51.05
2023-02-11T20:19:18.893Z,44.47
2023-02-11T20:21:47.569Z,44.17
2023-02-11T20:24:15.846Z,49.42
2023-02-11T20:26:42.753Z,46.58
2023-02-11T20:29:09.741Z,43.85
2023-02-11T20:31:36.678Z,59.88
2023-02-11T20:34:03.748Z,60.88
2023-02-11T20:36:35.535Z,49.92
2023-02-11T20:39:04.830Z,48.97
2023-02-11T20:41:36.371Z,48.22
2023-02-11T20:44:06.369Z,44.35
2023-02-11T20:46:34.090Z,51.15
2023-02-11T20:49:01.750Z,53.00
2023-02-11T20:51:31.592Z,50.25
2023-02-11T20:53:58.338Z,52.08
2023-02-11T20:56:30.954Z,45.38
2023-02-11T20:58:59.855Z,53.42
2023-02-11T21:01:40.624Z,49.13
2023-02-11T21:04:13.524Z,60.08
2023-02-11T21:06:43.139Z,57.13
2023-02-11T21:09:13.116Z,50.63
2023-02-11T21:11:40.314Z,49.50
2023-02-11T21:14:07.261Z,47.70
2023-02-11T21:16:34.034Z,51.92
2023-02-11T21:19:01.176Z,51.78
2023-02-11T21:21:27.844Z,56.60
2023-02-11T21:23:56.070Z,44.97
2023-02-11T21:26:22.903Z,50.28
2023-02-11T21:28:50.068Z,56.38
2023-02-11T21:31:25.983Z,52.70
2023-02-11T21:33:54.744Z,59.65
2023-02-11T21:36:22.171Z,55.13
2023-02-11T21:38:49.931Z,54.08
2023-02-11T21:41:17.595Z,65.47
2023-02-11T21:43:44.515Z,63.15
2023-02-11T21:46:14.315Z,55.50
2023-02-11T21:48:40.926Z,60.72
2023-02-11T21:51:11.252Z,53.53
2023-02-11T21:53:38.850Z,53.75
2023-02-11T21:56:11.291Z,56.28
2023-02-11T21:58:37.894Z,51.38
2023-02-11T22:01:18.386Z,47.85
2023-02-11T22:03:46.470Z,48.40
2023-02-11T22:06:16.582Z,48.78
2023-02-11T22:08:43.192Z,47.28
2023-02-11T22:11:12.268Z,42.55
2023-02-11T22:13:40.179Z,52.30
2023-02-11T22:16:10.232Z,49.15
2023-02-11T22:18:37.650Z,47.03
2023-02-11T22:21:10.392Z,50.38
2023-02-11T22:23:38.421Z,52.70
2023-02-11T22:26:10.412Z,53.35
2023-02-11T22:28:38.989Z,55.35
2023-02-11T22:31:05.691Z,52.28
2023-02-11T22:33:32.831Z,46.33
2023-02-11T22:36:09.180Z,61.33
2023-02-11T22:38:35.858Z,56.30
2023-02-11T22:41:07.144Z,58.05
2023-02-11T22:43:33.791Z,61.70
2023-02-11T22:46:05.291Z,57.53
2023-02-11T22:48:32.333Z,58.72
2023-02-11T22:51:10.472Z,64.32
2023-02-11T22:53:37.207Z,58.85
2023-02-11T22:56:07.045Z,56.75
2023-02-11T22:58:35.751Z,66.30
2023-02-11T23:18:14.783Z,65.85
2023-02-11T23:20:43.194Z,70.20
2023-02-11T23:23:09.821Z,69.03
2023-02-11T23:25:42.487Z,74.07
2023-02-11T23:28:09.905Z,72.75
2023-02-11T23:30:36.702Z,74.20
2023-02-11T23:33:03.291Z,70.15
2023-02-11T23:35:29.902Z,64.18
2023-02-11T23:37:56.440Z,63.97
2023-02-11T23:40:23.026Z,59.67
2023-02-11T23:42:49.577Z,61.75
2023-02-11T23:45:16.170Z,63.58
2023-02-11T23:47:42.712Z,60.30
2023-02-11T23:50:09.889Z,68.18
2023-02-11T23:52:36.519Z,67.35
2023-02-11T23:55:03.682Z,63.35
2023-02-11T23:57:33.185Z,72.13
2023-02-11T23:59:59.723Z,57.95
